sensor_id;sensor_type;location;lat;lon;timestamp;P1;durP1;ratioP1;P2;durP2;ratioP2
60038;SDS011;45916;52.734;6.544;2023-02-28T00:00:05;11.02;;;6.82;;
60038;SDS011;45916;52.734;6.544;2023-02-28T00:02:38;10.05;;;6.00;;
60038;SDS011;45916;52.734;6.544;2023-02-28T00:05:05;10.80;;;5.57;;
60038;SDS011;45916;52.734;6.544;2023-02-28T00:07:32;9.73;;;5.47;;
60038;SDS011;45916;52.734;6.544;2023-02-28T00:09:58;9.35;;;5.50;;
60038;SDS011;45916;52.734;6.544;2023-02-28T00:12:25;8.20;;;5.40;;
60038;SDS011;45916;52.734;6.544;2023-02-28T00:14:50;13.25;;;6.13;;
60038;SDS011;45916;52.734;6.544;2023-02-28T00:17:17;10.05;;;5.57;;
60038;SDS011;45916;52.734;6.544;2023-02-28T00:19:46;9.25;;;6.32;;
60038;SDS011;45916;52.734;6.544;2023-02-28T00:22:13;10.63;;;6.10;;
60038;SDS011;45916;52.734;6.544;2023-02-28T00:24:39;10.18;;;5.30;;
60038;SDS011;45916;52.734;6.544;2023-02-28T00:27:05;7.75;;;5.80;;
60038;SDS011;45916;52.734;6.544;2023-02-28T00:29:31;9.90;;;6.45;;
60038;SDS011;45916;52.734;6.544;2023-02-28T00:31:57;9.50;;;6.05;;
60038;SDS011;45916;52.734;6.544;2023-02-28T00:34:22;13.27;;;6.63;;
60038;SDS011;45916;52.734;6.544;2023-02-28T00:36:48;11.30;;;6.45;;
60038;SDS011;45916;52.734;6.544;2023-02-28T00:39:14;9.70;;;6.68;;
60038;SDS011;45916;52.734;6.544;2023-02-28T00:41:40;8.65;;;5.88;;
60038;SDS011;45916;52.734;6.544;2023-02-28T00:44:06;9.63;;;5.95;;
60038;SDS011;45916;52.734;6.544;2023-02-28T00:46:32;9.75;;;6.05;;
60038;SDS011;45916;52.734;6.544;2023-02-28T00:48:57;12.10;;;6.68;;
60038;SDS011;45916;52.734;6.544;2023-02-28T00:51:23;8.70;;;5.43;;
60038;SDS011;45916;52.734;6.544;2023-02-28T00:53:49;10.75;;;6.55;;
60038;SDS011;45916;52.734;6.544;2023-02-28T00:56:15;10.13;;;6.60;;
60038;SDS011;45916;52.734;6.544;2023-02-28T00:58:41;9.73;;;6.10;;
60038;SDS011;45916;52.734;6.544;2023-02-28T01:01:06;9.48;;;5.95;;
60038;SDS011;45916;52.734;6.544;2023-02-28T01:03:32;9.60;;;5.93;;
60038;SDS011;45916;52.734;6.544;2023-02-28T01:05:58;12.07;;;5.68;;
60038;SDS011;45916;52.734;6.544;2023-02-28T01:08:24;11.20;;;6.75;;
60038;SDS011;45916;52.734;6.544;2023-02-28T01:10:51;11.13;;;6.88;;
60038;SDS011;45916;52.734;6.544;2023-02-28T01:13:17;11.00;;;7.07;;
60038;SDS011;45916;52.734;6.544;2023-02-28T01:15:45;11.32;;;6.65;;
60038;SDS011;45916;52.734;6.544;2023-02-28T01:18:17;12.13;;;7.35;;
60038;SDS011;45916;52.734;6.544;2023-02-28T01:20:44;12.32;;;7.45;;
60038;SDS011;45916;52.734;6.544;2023-02-28T01:23:11;13.48;;;6.95;;
60038;SDS011;45916;52.734;6.544;2023-02-28T01:25:37;9.80;;;6.28;;
60038;SDS011;45916;52.734;6.544;2023-02-28T01:28:03;12.50;;;7.28;;
60038;SDS011;45916;52.734;6.544;2023-02-28T01:30:29;9.93;;;6.18;;
60038;SDS011;45916;52.734;6.544;2023-02-28T01:32:55;9.98;;;5.95;;
60038;SDS011;45916;52.734;6.544;2023-02-28T01:35:21;10.50;;;6.63;;
60038;SDS011;45916;52.734;6.544;2023-02-28T01:37:47;10.95;;;6.45;;
60038;SDS011;45916;52.734;6.544;2023-02-28T01:40:12;9.63;;;6.47;;
60038;SDS011;45916;52.734;6.544;2023-02-28T01:42:39;10.65;;;6.78;;
60038;SDS011;45916;52.734;6.544;2023-02-28T01:47:52;11.88;;;7.78;;
60038;SDS011;45916;52.734;6.544;2023-02-28T01:50:24;10.57;;;7.22;;
60038;SDS011;45916;52.734;6.544;2023-02-28T01:52:52;11.77;;;8.00;;
60038;SDS011;45916;52.734;6.544;2023-02-28T01:55:21;12.82;;;8.48;;
60038;SDS011;45916;52.734;6.544;2023-02-28T01:57:50;12.03;;;8.07;;
60038;SDS011;45916;52.734;6.544;2023-02-28T02:00:20;12.80;;;7.55;;
60038;SDS011;45916;52.734;6.544;2023-02-28T02:02:51;12.65;;;8.20;;
60038;SDS011;45916;52.734;6.544;2023-02-28T02:05:22;11.88;;;7.72;;
60038;SDS011;45916;52.734;6.544;2023-02-28T02:07:54;12.70;;;8.70;;
60038;SDS011;45916;52.734;6.544;2023-02-28T02:15:34;11.32;;;8.77;;
60038;SDS011;45916;52.734;6.544;2023-02-28T02:23:47;14.13;;;8.40;;
60038;SDS011;45916;52.734;6.544;2023-02-28T02:29:38;11.85;;;8.57;;
60038;SDS011;45916;52.734;6.544;2023-02-28T02:35:27;12.02;;;9.32;;
60038;SDS011;45916;52.734;6.544;2023-02-28T02:38:06;15.35;;;11.57;;
60038;SDS011;45916;52.734;6.544;2023-02-28T02:41:04;14.43;;;10.40;;
60038;SDS011;45916;52.734;6.544;2023-02-28T02:43:53;17.52;;;11.95;;
60038;SDS011;45916;52.734;6.544;2023-02-28T02:46:33;19.08;;;11.98;;
60038;SDS011;45916;52.734;6.544;2023-02-28T02:49:04;16.67;;;12.63;;
60038;SDS011;45916;52.734;6.544;2023-02-28T02:51:35;16.50;;;12.40;;
60038;SDS011;45916;52.734;6.544;2023-02-28T02:56:33;19.88;;;12.75;;
60038;SDS011;45916;52.734;6.544;2023-02-28T02:59:04;17.30;;;11.32;;
60038;SDS011;45916;52.734;6.544;2023-02-28T03:01:34;19.02;;;12.45;;
60038;SDS011;45916;52.734;6.544;2023-02-28T03:04:03;17.45;;;12.88;;
60038;SDS011;45916;52.734;6.544;2023-02-28T03:06:32;17.25;;;11.88;;
60038;SDS011;45916;52.734;6.544;2023-02-28T03:08:59;20.05;;;13.40;;
60038;SDS011;45916;52.734;6.544;2023-02-28T03:11:26;18.45;;;13.07;;
60038;SDS011;45916;52.734;6.544;2023-02-28T03:21:31;20.05;;;13.77;;
60038;SDS011;45916;52.734;6.544;2023-02-28T03:24:07;16.23;;;11.95;;
60038;SDS011;45916;52.734;6.544;2023-02-28T03:26:40;16.75;;;12.95;;
60038;SDS011;45916;52.734;6.544;2023-02-28T03:29:16;19.95;;;12.85;;
60038;SDS011;45916;52.734;6.544;2023-02-28T03:32:00;18.42;;;13.85;;
60038;SDS011;45916;52.734;6.544;2023-02-28T03:35:16;19.63;;;13.60;;
60038;SDS011;45916;52.734;6.544;2023-02-28T03:37:39;20.70;;;14.15;;
60038;SDS011;45916;52.734;6.544;2023-02-28T03:40:15;17.55;;;12.57;;
60038;SDS011;45916;52.734;6.544;2023-02-28T03:42:45;21.10;;;15.00;;
60038;SDS011;45916;52.734;6.544;2023-02-28T03:45:19;19.45;;;13.10;;
60038;SDS011;45916;52.734;6.544;2023-02-28T03:47:52;19.52;;;14.40;;
60038;SDS011;45916;52.734;6.544;2023-02-28T03:50:24;19.27;;;12.98;;
60038;SDS011;45916;52.734;6.544;2023-02-28T03:55:51;19.45;;;14.52;;
60038;SDS011;45916;52.734;6.544;2023-02-28T03:58:57;21.15;;;14.52;;
60038;SDS011;45916;52.734;6.544;2023-02-28T04:01:25;19.63;;;13.15;;
60038;SDS011;45916;52.734;6.544;2023-02-28T04:03:56;21.92;;;15.32;;
60038;SDS011;45916;52.734;6.544;2023-02-28T04:06:22;20.83;;;15.45;;
60038;SDS011;45916;52.734;6.544;2023-02-28T04:08:49;20.65;;;14.80;;
60038;SDS011;45916;52.734;6.544;2023-02-28T04:14:02;22.75;;;14.40;;
60038;SDS011;45916;52.734;6.544;2023-02-28T04:16:29;20.67;;;14.97;;
60038;SDS011;45916;52.734;6.544;2023-02-28T04:18:56;20.83;;;14.70;;
60038;SDS011;45916;52.734;6.544;2023-02-28T04:21:27;20.17;;;15.35;;
60038;SDS011;45916;52.734;6.544;2023-02-28T04:23:56;20.00;;;15.38;;
60038;SDS011;45916;52.734;6.544;2023-02-28T04:26:29;18.27;;;13.55;;
60038;SDS011;45916;52.734;6.544;2023-02-28T04:28:55;17.25;;;12.60;;
60038;SDS011;45916;52.734;6.544;2023-02-28T04:31:22;18.15;;;14.15;;
60038;SDS011;45916;52.734;6.544;2023-02-28T04:33:47;21.65;;;16.05;;
60038;SDS011;45916;52.734;6.544;2023-02-28T04:36:13;20.85;;;16.13;;
60038;SDS011;45916;52.734;6.544;2023-02-28T04:38:40;21.90;;;15.75;;
60038;SDS011;45916;52.734;6.544;2023-02-28T04:41:05;20.70;;;14.98;;
60038;SDS011;45916;52.734;6.544;2023-02-28T04:43:31;20.40;;;15.10;;
60038;SDS011;45916;52.734;6.544;2023-02-28T04:45:58;20.38;;;14.85;;
60038;SDS011;45916;52.734;6.544;2023-02-28T04:48:27;18.77;;;14.80;;
60038;SDS011;45916;52.734;6.544;2023-02-28T04:50:54;24.98;;;15.82;;
60038;SDS011;45916;52.734;6.544;2023-02-28T04:53:20;22.33;;;15.75;;
60038;SDS011;45916;52.734;6.544;2023-02-28T04:55:46;25.92;;;14.82;;
60038;SDS011;45916;52.734;6.544;2023-02-28T04:58:12;21.95;;;16.02;;
60038;SDS011;45916;52.734;6.544;2023-02-28T05:00:39;22.48;;;15.55;;
60038;SDS011;45916;52.734;6.544;2023-02-28T05:03:04;17.88;;;14.65;;
60038;SDS011;45916;52.734;6.544;2023-02-28T05:05:30;22.15;;;16.20;;
60038;SDS011;45916;52.734;6.544;2023-02-28T05:07:56;22.90;;;16.30;;
60038;SDS011;45916;52.734;6.544;2023-02-28T05:10:22;20.00;;;15.52;;
60038;SDS011;45916;52.734;6.544;2023-02-28T05:12:48;21.17;;;15.57;;
60038;SDS011;45916;52.734;6.544;2023-02-28T05:15:14;20.77;;;14.55;;
60038;SDS011;45916;52.734;6.544;2023-02-28T05:17:41;22.90;;;17.73;;
60038;SDS011;45916;52.734;6.544;2023-02-28T05:20:08;18.95;;;15.13;;
60038;SDS011;45916;52.734;6.544;2023-02-28T05:22:39;23.77;;;15.68;;
60038;SDS011;45916;52.734;6.544;2023-02-28T05:25:05;24.63;;;17.23;;
60038;SDS011;45916;52.734;6.544;2023-02-28T05:27:32;22.98;;;17.55;;
60038;SDS011;45916;52.734;6.544;2023-02-28T05:29:57;23.10;;;15.70;;
60038;SDS011;45916;52.734;6.544;2023-02-28T05:32:24;22.48;;;16.55;;
60038;SDS011;45916;52.734;6.544;2023-02-28T05:34:50;22.67;;;14.85;;
60038;SDS011;45916;52.734;6.544;2023-02-28T05:37:15;23.08;;;16.52;;
60038;SDS011;45916;52.734;6.544;2023-02-28T05:39:41;22.30;;;16.67;;
60038;SDS011;45916;52.734;6.544;2023-02-28T05:42:07;27.02;;;18.42;;
60038;SDS011;45916;52.734;6.544;2023-02-28T05:44:34;25.25;;;18.50;;
60038;SDS011;45916;52.734;6.544;2023-02-28T05:47:01;30.63;;;22.38;;
60038;SDS011;45916;52.734;6.544;2023-02-28T05:49:27;30.95;;;21.63;;
60038;SDS011;45916;52.734;6.544;2023-02-28T05:51:52;29.50;;;20.15;;
60038;SDS011;45916;52.734;6.544;2023-02-28T05:54:18;26.58;;;21.75;;
60038;SDS011;45916;52.734;6.544;2023-02-28T05:56:44;30.45;;;21.75;;
60038;SDS011;45916;52.734;6.544;2023-02-28T05:59:11;26.15;;;18.52;;
60038;SDS011;45916;52.734;6.544;2023-02-28T06:01:41;23.77;;;17.15;;
60038;SDS011;45916;52.734;6.544;2023-02-28T06:04:13;22.58;;;16.98;;
60038;SDS011;45916;52.734;6.544;2023-02-28T06:06:43;18.88;;;15.02;;
60038;SDS011;45916;52.734;6.544;2023-02-28T06:09:09;21.70;;;15.65;;
60038;SDS011;45916;52.734;6.544;2023-02-28T06:11:36;17.92;;;14.60;;
60038;SDS011;45916;52.734;6.544;2023-02-28T06:14:02;19.60;;;15.95;;
60038;SDS011;45916;52.734;6.544;2023-02-28T06:16:28;18.30;;;13.48;;
60038;SDS011;45916;52.734;6.544;2023-02-28T06:18:59;15.68;;;13.55;;
60038;SDS011;45916;52.734;6.544;2023-02-28T06:21:27;15.18;;;12.18;;
60038;SDS011;45916;52.734;6.544;2023-02-28T06:23:53;18.02;;;11.77;;
60038;SDS011;45916;52.734;6.544;2023-02-28T06:26:20;13.98;;;11.50;;
60038;SDS011;45916;52.734;6.544;2023-02-28T06:28:46;14.40;;;11.25;;
60038;SDS011;45916;52.734;6.544;2023-02-28T06:31:12;16.27;;;12.55;;
60038;SDS011;45916;52.734;6.544;2023-02-28T06:33:40;17.05;;;12.77;;
60038;SDS011;45916;52.734;6.544;2023-02-28T06:36:07;15.55;;;13.10;;
60038;SDS011;45916;52.734;6.544;2023-02-28T06:38:34;17.48;;;12.35;;
60038;SDS011;45916;52.734;6.544;2023-02-28T06:41:01;16.23;;;12.82;;
60038;SDS011;45916;52.734;6.544;2023-02-28T06:43:28;16.38;;;12.75;;
60038;SDS011;45916;52.734;6.544;2023-02-28T06:45:56;15.85;;;14.15;;
60038;SDS011;45916;52.734;6.544;2023-02-28T06:48:24;17.80;;;14.13;;
60038;SDS011;45916;52.734;6.544;2023-02-28T06:50:50;16.27;;;12.38;;
60038;SDS011;45916;52.734;6.544;2023-02-28T06:53:16;18.45;;;12.55;;
60038;SDS011;45916;52.734;6.544;2023-02-28T06:55:42;16.73;;;13.15;;
60038;SDS011;45916;52.734;6.544;2023-02-28T06:58:07;17.05;;;13.43;;
60038;SDS011;45916;52.734;6.544;2023-02-28T07:00:42;17.05;;;13.98;;
60038;SDS011;45916;52.734;6.544;2023-02-28T07:03:09;19.38;;;16.02;;
60038;SDS011;45916;52.734;6.544;2023-02-28T07:05:36;21.45;;;16.33;;
60038;SDS011;45916;52.734;6.544;2023-02-28T07:08:03;17.75;;;14.77;;
60038;SDS011;45916;52.734;6.544;2023-02-28T07:10:30;22.42;;;15.35;;
60038;SDS011;45916;52.734;6.544;2023-02-28T07:12:56;19.00;;;15.50;;
60038;SDS011;45916;52.734;6.544;2023-02-28T07:15:22;22.80;;;16.13;;
60038;SDS011;45916;52.734;6.544;2023-02-28T07:17:48;21.85;;;15.68;;
60038;SDS011;45916;52.734;6.544;2023-02-28T07:20:13;24.27;;;18.23;;
60038;SDS011;45916;52.734;6.544;2023-02-28T07:22:39;24.35;;;18.13;;
60038;SDS011;45916;52.734;6.544;2023-02-28T07:25:05;23.90;;;17.73;;
60038;SDS011;45916;52.734;6.544;2023-02-28T07:27:31;24.77;;;17.80;;
60038;SDS011;45916;52.734;6.544;2023-02-28T07:29:56;22.42;;;17.10;;
60038;SDS011;45916;52.734;6.544;2023-02-28T07:32:22;26.63;;;17.30;;
60038;SDS011;45916;52.734;6.544;2023-02-28T07:34:48;24.38;;;17.75;;
60038;SDS011;45916;52.734;6.544;2023-02-28T07:37:14;23.65;;;17.73;;
60038;SDS011;45916;52.734;6.544;2023-02-28T07:39:40;23.23;;;17.75;;
60038;SDS011;45916;52.734;6.544;2023-02-28T07:42:08;22.83;;;16.80;;
60038;SDS011;45916;52.734;6.544;2023-02-28T07:44:37;24.65;;;16.88;;
60038;SDS011;45916;52.734;6.544;2023-02-28T07:47:09;21.13;;;16.02;;
60038;SDS011;45916;52.734;6.544;2023-02-28T07:49:36;22.65;;;16.73;;
60038;SDS011;45916;52.734;6.544;2023-02-28T07:52:02;22.80;;;16.00;;
60038;SDS011;45916;52.734;6.544;2023-02-28T07:54:32;18.30;;;15.40;;
60038;SDS011;45916;52.734;6.544;2023-02-28T07:56:58;18.98;;;15.25;;
60038;SDS011;45916;52.734;6.544;2023-02-28T07:59:24;21.35;;;16.35;;
60038;SDS011;45916;52.734;6.544;2023-02-28T08:01:50;18.50;;;14.95;;
60038;SDS011;45916;52.734;6.544;2023-02-28T08:04:17;20.17;;;15.90;;
60038;SDS011;45916;52.734;6.544;2023-02-28T08:06:43;18.20;;;13.38;;
60038;SDS011;45916;52.734;6.544;2023-02-28T08:09:09;17.23;;;13.82;;
60038;SDS011;45916;52.734;6.544;2023-02-28T08:11:34;15.23;;;12.52;;
60038;SDS011;45916;52.734;6.544;2023-02-28T08:14:01;13.65;;;10.80;;
60038;SDS011;45916;52.734;6.544;2023-02-28T08:16:27;12.82;;;9.57;;
60038;SDS011;45916;52.734;6.544;2023-02-28T08:18:53;15.80;;;10.93;;
60038;SDS011;45916;52.734;6.544;2023-02-28T08:21:19;12.90;;;10.95;;
60038;SDS011;45916;52.734;6.544;2023-02-28T08:23:46;14.50;;;10.45;;
60038;SDS011;45916;52.734;6.544;2023-02-28T08:26:13;13.70;;;10.25;;
60038;SDS011;45916;52.734;6.544;2023-02-28T08:28:40;11.70;;;9.65;;
60038;SDS011;45916;52.734;6.544;2023-02-28T08:31:07;11.32;;;8.73;;
60038;SDS011;45916;52.734;6.544;2023-02-28T08:33:37;10.95;;;8.57;;
60038;SDS011;45916;52.734;6.544;2023-02-28T08:36:04;11.40;;;8.60;;
60038;SDS011;45916;52.734;6.544;2023-02-28T08:38:31;9.98;;;7.55;;
60038;SDS011;45916;52.734;6.544;2023-02-28T08:40:57;10.55;;;8.05;;
60038;SDS011;45916;52.734;6.544;2023-02-28T08:43:24;9.68;;;7.63;;
60038;SDS011;45916;52.734;6.544;2023-02-28T08:45:53;10.57;;;7.85;;
60038;SDS011;45916;52.734;6.544;2023-02-28T08:48:23;9.65;;;6.97;;
60038;SDS011;45916;52.734;6.544;2023-02-28T08:50:59;9.07;;;5.97;;
60038;SDS011;45916;52.734;6.544;2023-02-28T08:53:26;8.55;;;6.72;;
60038;SDS011;45916;52.734;6.544;2023-02-28T08:56:03;10.63;;;7.60;;
60038;SDS011;45916;52.734;6.544;2023-02-28T08:58:30;9.18;;;7.10;;
60038;SDS011;45916;52.734;6.544;2023-02-28T09:00:56;9.60;;;7.35;;
60038;SDS011;45916;52.734;6.544;2023-02-28T09:03:22;9.85;;;7.30;;
60038;SDS011;45916;52.734;6.544;2023-02-28T09:05:56;9.88;;;7.63;;
60038;SDS011;45916;52.734;6.544;2023-02-28T09:08:24;9.10;;;6.07;;
60038;SDS011;45916;52.734;6.544;2023-02-28T09:10:50;7.50;;;6.03;;
60038;SDS011;45916;52.734;6.544;2023-02-28T09:13:17;7.65;;;5.88;;
60038;SDS011;45916;52.734;6.544;2023-02-28T09:15:44;8.73;;;6.95;;
60038;SDS011;45916;52.734;6.544;2023-02-28T09:18:10;7.63;;;4.38;;
60038;SDS011;45916;52.734;6.544;2023-02-28T09:20:42;6.40;;;4.05;;
60038;SDS011;45916;52.734;6.544;2023-02-28T09:23:09;5.90;;;4.13;;
60038;SDS011;45916;52.734;6.544;2023-02-28T09:25:35;5.03;;;3.53;;
60038;SDS011;45916;52.734;6.544;2023-02-28T09:28:01;7.43;;;4.13;;
60038;SDS011;45916;52.734;6.544;2023-02-28T09:30:28;7.25;;;3.22;;
60038;SDS011;45916;52.734;6.544;2023-02-28T09:32:54;5.75;;;3.90;;
60038;SDS011;45916;52.734;6.544;2023-02-28T09:35:20;5.35;;;3.35;;
60038;SDS011;45916;52.734;6.544;2023-02-28T09:37:48;5.45;;;3.63;;
60038;SDS011;45916;52.734;6.544;2023-02-28T09:40:15;5.53;;;3.97;;
60038;SDS011;45916;52.734;6.544;2023-02-28T09:42:48;5.60;;;3.70;;
60038;SDS011;45916;52.734;6.544;2023-02-28T09:45:32;5.45;;;3.67;;
60038;SDS011;45916;52.734;6.544;2023-02-28T09:48:03;6.15;;;3.83;;
60038;SDS011;45916;52.734;6.544;2023-02-28T09:50:38;4.18;;;2.83;;
60038;SDS011;45916;52.734;6.544;2023-02-28T09:55:49;5.68;;;3.55;;
60038;SDS011;45916;52.734;6.544;2023-02-28T09:58:33;5.13;;;2.55;;
60038;SDS011;45916;52.734;6.544;2023-02-28T10:01:06;5.53;;;2.97;;
60038;SDS011;45916;52.734;6.544;2023-02-28T10:03:47;5.50;;;3.25;;
60038;SDS011;45916;52.734;6.544;2023-02-28T10:06:38;6.32;;;2.80;;
60038;SDS011;45916;52.734;6.544;2023-02-28T10:11:48;6.88;;;2.63;;
60038;SDS011;45916;52.734;6.544;2023-02-28T10:14:19;6.07;;;2.88;;
60038;SDS011;45916;52.734;6.544;2023-02-28T10:22:38;5.75;;;3.00;;
60038;SDS011;45916;52.734;6.544;2023-02-28T10:25:25;5.47;;;3.20;;
60038;SDS011;45916;52.734;6.544;2023-02-28T10:27:57;5.95;;;3.25;;
60038;SDS011;45916;52.734;6.544;2023-02-28T10:30:43;6.50;;;3.13;;
60038;SDS011;45916;52.734;6.544;2023-02-28T10:33:19;6.93;;;3.83;;
60038;SDS011;45916;52.734;6.544;2023-02-28T10:35:50;7.55;;;3.72;;
60038;SDS011;45916;52.734;6.544;2023-02-28T10:38:19;7.45;;;3.85;;
60038;SDS011;45916;52.734;6.544;2023-02-28T10:40:50;5.82;;;4.00;;
60038;SDS011;45916;52.734;6.544;2023-02-28T11:01:24;6.25;;;2.55;;
60038;SDS011;45916;52.734;6.544;2023-02-28T11:04:00;4.72;;;2.60;;
60038;SDS011;45916;52.734;6.544;2023-02-28T11:06:33;4.53;;;2.20;;
60038;SDS011;45916;52.734;6.544;2023-02-28T11:09:04;4.97;;;2.00;;
60038;SDS011;45916;52.734;6.544;2023-02-28T11:11:41;4.50;;;2.15;;
60038;SDS011;45916;52.734;6.544;2023-02-28T11:14:20;4.05;;;2.05;;
60038;SDS011;45916;52.734;6.544;2023-02-28T11:16:57;5.28;;;2.25;;
60038;SDS011;45916;52.734;6.544;2023-02-28T11:19:39;4.95;;;2.47;;
60038;SDS011;45916;52.734;6.544;2023-02-28T11:22:10;5.25;;;2.08;;
60038;SDS011;45916;52.734;6.544;2023-02-28T11:24:47;4.57;;;2.28;;
60038;SDS011;45916;52.734;6.544;2023-02-28T11:29:55;4.68;;;2.33;;
60038;SDS011;45916;52.734;6.544;2023-02-28T11:32:21;4.13;;;2.55;;
60038;SDS011;45916;52.734;6.544;2023-02-28T11:35:02;5.05;;;2.67;;
60038;SDS011;45916;52.734;6.544;2023-02-28T11:37:42;6.35;;;2.95;;
60038;SDS011;45916;52.734;6.544;2023-02-28T11:45:45;5.43;;;3.05;;
60038;SDS011;45916;52.734;6.544;2023-02-28T11:51:26;4.97;;;3.33;;
60038;SDS011;45916;52.734;6.544;2023-02-28T11:56:47;4.72;;;3.08;;
60038;SDS011;45916;52.734;6.544;2023-02-28T12:16:53;6.35;;;3.33;;
60038;SDS011;45916;52.734;6.544;2023-02-28T12:19:20;5.10;;;3.38;;
60038;SDS011;45916;52.734;6.544;2023-02-28T12:27:17;5.43;;;3.60;;
60038;SDS011;45916;52.734;6.544;2023-02-28T12:29:49;7.38;;;3.88;;
60038;SDS011;45916;52.734;6.544;2023-02-28T12:32:25;6.75;;;4.07;;
60038;SDS011;45916;52.734;6.544;2023-02-28T12:34:53;5.80;;;3.38;;
60038;SDS011;45916;52.734;6.544;2023-02-28T12:40:00;6.25;;;4.05;;
60038;SDS011;45916;52.734;6.544;2023-02-28T12:43:14;7.13;;;3.90;;
60038;SDS011;45916;52.734;6.544;2023-02-28T12:45:24;6.35;;;3.95;;
60038;SDS011;45916;52.734;6.544;2023-02-28T12:47:55;5.65;;;3.67;;
60038;SDS011;45916;52.734;6.544;2023-02-28T12:50:25;7.35;;;4.20;;
60038;SDS011;45916;52.734;6.544;2023-02-28T12:52:59;7.00;;;3.72;;
60038;SDS011;45916;52.734;6.544;2023-02-28T13:00:59;6.57;;;3.55;;
60038;SDS011;45916;52.734;6.544;2023-02-28T13:11:34;5.95;;;3.83;;
60038;SDS011;45916;52.734;6.544;2023-02-28T13:14:24;6.35;;;3.67;;
60038;SDS011;45916;52.734;6.544;2023-02-28T13:19:33;5.70;;;3.70;;
60038;SDS011;45916;52.734;6.544;2023-02-28T13:22:00;7.00;;;4.30;;
60038;SDS011;45916;52.734;6.544;2023-02-28T13:24:38;5.18;;;3.92;;
60038;SDS011;45916;52.734;6.544;2023-02-28T13:29:37;6.47;;;4.10;;
60038;SDS011;45916;52.734;6.544;2023-02-28T13:39:55;7.78;;;4.47;;
60038;SDS011;45916;52.734;6.544;2023-02-28T13:58:42;6.63;;;4.80;;
60038;SDS011;45916;52.734;6.544;2023-02-28T14:06:36;6.07;;;4.25;;
60038;SDS011;45916;52.734;6.544;2023-02-28T14:11:41;6.20;;;4.95;;
60038;SDS011;45916;52.734;6.544;2023-02-28T14:14:08;6.57;;;4.88;;
60038;SDS011;45916;52.734;6.544;2023-02-28T14:16:55;7.80;;;5.10;;
60038;SDS011;45916;52.734;6.544;2023-02-28T14:19:26;6.50;;;5.20;;
60038;SDS011;45916;52.734;6.544;2023-02-28T14:27:40;6.07;;;4.90;;
60038;SDS011;45916;52.734;6.544;2023-02-28T14:30:40;7.88;;;4.90;;
60038;SDS011;45916;52.734;6.544;2023-02-28T14:33:18;6.75;;;5.10;;
60038;SDS011;45916;52.734;6.544;2023-02-28T14:36:08;7.15;;;4.90;;
60038;SDS011;45916;52.734;6.544;2023-02-28T14:38:41;7.57;;;5.07;;
60038;SDS011;45916;52.734;6.544;2023-02-28T14:41:15;9.57;;;5.18;;
60038;SDS011;45916;52.734;6.544;2023-02-28T14:43:50;6.57;;;4.68;;
60038;SDS011;45916;52.734;6.544;2023-02-28T14:46:28;7.43;;;5.50;;
60038;SDS011;45916;52.734;6.544;2023-02-28T14:49:04;6.55;;;5.15;;
60038;SDS011;45916;52.734;6.544;2023-02-28T14:51:32;7.43;;;5.55;;
60038;SDS011;45916;52.734;6.544;2023-02-28T14:53:59;7.07;;;5.68;;
60038;SDS011;45916;52.734;6.544;2023-02-28T14:56:32;8.32;;;6.20;;
60038;SDS011;45916;52.734;6.544;2023-02-28T14:59:01;7.50;;;5.70;;
60038;SDS011;45916;52.734;6.544;2023-02-28T15:01:27;6.28;;;5.30;;
60038;SDS011;45916;52.734;6.544;2023-02-28T15:03:57;6.90;;;5.65;;
60038;SDS011;45916;52.734;6.544;2023-02-28T15:06:26;7.25;;;5.15;;
60038;SDS011;45916;52.734;6.544;2023-02-28T15:09:09;7.20;;;5.43;;
60038;SDS011;45916;52.734;6.544;2023-02-28T15:11:44;7.65;;;5.78;;
60038;SDS011;45916;52.734;6.544;2023-02-28T15:14:17;6.65;;;4.95;;
60038;SDS011;45916;52.734;6.544;2023-02-28T15:16:45;6.68;;;4.63;;
60038;SDS011;45916;52.734;6.544;2023-02-28T15:19:25;7.35;;;4.85;;
60038;SDS011;45916;52.734;6.544;2023-02-28T15:22:04;7.22;;;4.78;;
60038;SDS011;45916;52.734;6.544;2023-02-28T15:24:38;6.28;;;4.43;;
60038;SDS011;45916;52.734;6.544;2023-02-28T15:27:23;6.95;;;4.80;;
60038;SDS011;45916;52.734;6.544;2023-02-28T15:30:34;7.68;;;4.50;;
60038;SDS011;45916;52.734;6.544;2023-02-28T15:32:43;6.63;;;4.97;;
60038;SDS011;45916;52.734;6.544;2023-02-28T15:35:27;6.80;;;4.80;;
60038;SDS011;45916;52.734;6.544;2023-02-28T15:38:02;7.88;;;5.35;;
60038;SDS011;45916;52.734;6.544;2023-02-28T15:40:49;6.68;;;4.88;;
60038;SDS011;45916;52.734;6.544;2023-02-28T15:43:42;6.88;;;5.18;;
60038;SDS011;45916;52.734;6.544;2023-02-28T15:46:11;6.78;;;4.70;;
60038;SDS011;45916;52.734;6.544;2023-02-28T15:48:50;6.63;;;4.97;;
60038;SDS011;45916;52.734;6.544;2023-02-28T15:51:29;6.38;;;5.03;;
60038;SDS011;45916;52.734;6.544;2023-02-28T15:54:04;8.30;;;5.45;;
60038;SDS011;45916;52.734;6.544;2023-02-28T15:56:33;7.68;;;4.60;;
60038;SDS011;45916;52.734;6.544;2023-02-28T15:59:07;7.13;;;4.53;;
60038;SDS011;45916;52.734;6.544;2023-02-28T16:01:41;6.43;;;4.82;;
60038;SDS011;45916;52.734;6.544;2023-02-28T16:04:17;7.07;;;4.82;;
60038;SDS011;45916;52.734;6.544;2023-02-28T16:07:00;6.32;;;4.90;;
60038;SDS011;45916;52.734;6.544;2023-02-28T16:09:28;7.90;;;4.65;;
60038;SDS011;45916;52.734;6.544;2023-02-28T16:11:55;8.73;;;5.28;;
60038;SDS011;45916;52.734;6.544;2023-02-28T16:14:26;8.25;;;5.63;;
60038;SDS011;45916;52.734;6.544;2023-02-28T16:17:03;7.20;;;5.53;;
60038;SDS011;45916;52.734;6.544;2023-02-28T16:19:30;6.55;;;5.50;;
60038;SDS011;45916;52.734;6.544;2023-02-28T16:21:56;8.27;;;6.13;;
60038;SDS011;45916;52.734;6.544;2023-02-28T16:24:22;6.85;;;5.57;;
60038;SDS011;45916;52.734;6.544;2023-02-28T16:26:49;8.88;;;6.22;;
60038;SDS011;45916;52.734;6.544;2023-02-28T16:29:20;8.30;;;5.97;;
60038;SDS011;45916;52.734;6.544;2023-02-28T16:31:52;7.78;;;5.30;;
60038;SDS011;45916;52.734;6.544;2023-02-28T16:34:18;8.45;;;5.80;;
60038;SDS011;45916;52.734;6.544;2023-02-28T16:36:46;6.68;;;5.90;;
60038;SDS011;45916;52.734;6.544;2023-02-28T16:39:12;7.53;;;5.45;;
60038;SDS011;45916;52.734;6.544;2023-02-28T16:41:38;8.45;;;6.57;;
60038;SDS011;45916;52.734;6.544;2023-02-28T16:44:10;8.23;;;5.60;;
60038;SDS011;45916;52.734;6.544;2023-02-28T16:46:43;8.25;;;5.80;;
60038;SDS011;45916;52.734;6.544;2023-02-28T16:49:12;8.15;;;5.82;;
60038;SDS011;45916;52.734;6.544;2023-02-28T16:51:38;7.20;;;6.07;;
60038;SDS011;45916;52.734;6.544;2023-02-28T16:54:04;8.52;;;5.72;;
60038;SDS011;45916;52.734;6.544;2023-02-28T16:56:29;7.90;;;5.70;;
60038;SDS011;45916;52.734;6.544;2023-02-28T16:58:58;7.90;;;5.78;;
60038;SDS011;45916;52.734;6.544;2023-02-28T17:01:26;6.78;;;5.38;;
60038;SDS011;45916;52.734;6.544;2023-02-28T17:03:52;8.10;;;5.57;;
60038;SDS011;45916;52.734;6.544;2023-02-28T17:06:26;9.15;;;6.15;;
60038;SDS011;45916;52.734;6.544;2023-02-28T17:08:53;9.35;;;6.78;;
60038;SDS011;45916;52.734;6.544;2023-02-28T17:11:19;6.45;;;5.65;;
60038;SDS011;45916;52.734;6.544;2023-02-28T17:13:46;8.88;;;6.05;;
60038;SDS011;45916;52.734;6.544;2023-02-28T17:18:59;7.68;;;6.00;;
60038;SDS011;45916;52.734;6.544;2023-02-28T17:21:26;8.07;;;6.45;;
60038;SDS011;45916;52.734;6.544;2023-02-28T17:23:52;8.43;;;6.88;;
60038;SDS011;45916;52.734;6.544;2023-02-28T17:26:18;9.48;;;6.85;;
60038;SDS011;45916;52.734;6.544;2023-02-28T17:28:46;7.97;;;6.50;;
60038;SDS011;45916;52.734;6.544;2023-02-28T17:31:12;7.90;;;6.75;;
60038;SDS011;45916;52.734;6.544;2023-02-28T17:33:38;7.97;;;6.50;;
60038;SDS011;45916;52.734;6.544;2023-02-28T17:36:04;9.85;;;6.53;;